createdAt,value
2019-02-23T00:00:47.220Z,874.00
2019-02-23T00:01:47.654Z,873.00
2019-02-23T00:02:48.543Z,862.00
2019-02-23T00:03:49.009Z,874.00
2019-02-23T00:04:49.849Z,867.00
2019-02-23T00:05:50.330Z,876.00
2019-02-23T00:06:50.916Z,866.00
2019-02-23T00:07:51.136Z,874.00
2019-02-23T00:08:51.992Z,876.00
2019-02-23T00:09:52.799Z,879.00
2019-02-23T00:10:53.283Z,877.00
2019-02-23T00:11:02.336Z,876.00
2019-02-23T00:12:04.666Z,876.00
2019-02-23T00:13:03.583Z,878.00
2019-02-23T00:14:08.050Z,876.00
2019-02-23T00:15:04.525Z,874.00
2019-02-23T00:16:06.395Z,874.00
2019-02-23T00:17:07.069Z,874.00
2019-02-23T00:18:07.620Z,876.00
2019-02-23T00:19:08.120Z,876.00
2019-02-23T00:20:09.008Z,874.00
2019-02-23T00:21:09.533Z,874.00
2019-02-23T00:22:10.247Z,876.00
2019-02-23T00:23:11.106Z,866.00
2019-02-23T00:24:11.207Z,867.00
2019-02-23T00:25:11.956Z,874.00
2019-02-23T00:26:12.578Z,874.00
2019-02-23T00:27:13.186Z,876.00
2019-02-23T00:28:12.199Z,874.00
2019-02-23T00:29:12.968Z,874.00
2019-02-23T00:30:14.943Z,874.00
2019-02-23T00:31:15.747Z,876.00
2019-02-23T00:32:15.874Z,876.00
2019-02-23T00:33:16.625Z,874.00
2019-02-23T00:34:16.770Z,874.00
2019-02-23T00:35:16.451Z,865.00
2019-02-23T00:36:17.764Z,866.00
2019-02-23T00:37:18.360Z,865.00
2019-02-23T00:38:18.896Z,866.00
2019-02-23T00:39:19.364Z,865.00
2019-02-23T00:40:19.992Z,865.00
2019-02-23T00:41:20.846Z,866.00
2019-02-23T00:42:20.924Z,868.00
2019-02-23T00:43:21.890Z,867.00
2019-02-23T00:44:21.499Z,876.00
2019-02-23T00:45:23.211Z,874.00
2019-02-23T00:46:22.712Z,874.00
2019-02-23T00:47:23.233Z,873.00
2019-02-23T00:48:26.040Z,876.00
2019-02-23T00:49:35.973Z,876.00
2019-02-23T00:50:25.300Z,883.00
2019-02-23T00:51:27.153Z,884.00
2019-02-23T00:52:27.629Z,881.00
2019-02-23T00:53:28.433Z,881.00
2019-02-23T00:54:29.027Z,879.00
2019-02-23T00:55:29.872Z,878.00
2019-02-23T00:56:29.355Z,877.00
2019-02-23T00:57:30.843Z,876.00
2019-02-23T00:58:31.481Z,874.00
2019-02-23T00:59:32.309Z,876.00
2019-02-23T01:00:33.030Z,880.00
2019-02-23T01:01:33.862Z,881.00
2019-02-23T01:02:34.546Z,884.00
2019-02-23T01:03:35.260Z,884.00
2019-02-23T01:03:45.380Z,877.00
2019-02-23T01:04:45.931Z,884.00
2019-02-23T01:05:46.689Z,880.00
2019-02-23T01:06:48.267Z,879.00
2019-02-23T01:07:48.740Z,878.00
2019-02-23T01:08:49.531Z,879.00
2019-02-23T01:09:50.240Z,884.00
2019-02-23T01:10:57.649Z,884.00
2019-02-23T01:11:50.433Z,886.00
2019-02-23T01:12:52.035Z,884.00
2019-02-23T01:13:52.958Z,884.00
2019-02-23T01:14:52.951Z,884.00
2019-02-23T01:15:53.237Z,881.00
2019-02-23T01:16:52.265Z,880.00
2019-02-23T01:17:53.930Z,883.00
2019-02-23T01:18:54.555Z,880.00
2019-02-23T01:19:55.362Z,879.00
2019-02-23T01:20:54.984Z,869.00
2019-02-23T01:21:55.814Z,879.00
2019-02-23T01:22:56.970Z,878.00
2019-02-23T01:23:56.613Z,880.00
2019-02-23T01:24:57.246Z,880.00
2019-02-23T01:25:57.882Z,879.00
2019-02-23T01:26:57.831Z,878.00
2019-02-23T01:27:59.099Z,879.00
2019-02-23T01:28:59.795Z,878.00
2019-02-23T01:29:58.872Z,878.00
2019-02-23T01:30:59.611Z,880.00
2019-02-23T01:32:01.327Z,880.00
2019-02-23T01:33:02.074Z,879.00
2019-02-23T01:34:02.913Z,880.00
2019-02-23T01:35:03.491Z,879.00
2019-02-23T01:36:04.417Z,879.00
2019-02-23T01:37:05.047Z,881.00
2019-02-23T01:38:05.674Z,879.00
2019-02-23T01:39:05.675Z,878.00
2019-02-23T01:40:06.249Z,876.00
2019-02-23T01:41:06.816Z,878.00
2019-02-23T01:42:07.515Z,877.00
2019-02-23T01:43:07.924Z,876.00
2019-02-23T01:44:06.958Z,877.00
2019-02-23T01:45:08.878Z,876.00
2019-02-23T01:46:09.746Z,876.00
2019-02-23T01:47:10.352Z,876.00
2019-02-23T01:48:11.141Z,876.00
2019-02-23T01:49:12.107Z,876.00
2019-02-23T01:50:11.808Z,878.00
2019-02-23T01:51:12.159Z,876.00
2019-02-23T01:52:13.763Z,877.00
2019-02-23T01:53:13.554Z,876.00
2019-02-23T01:54:15.266Z,877.00
2019-02-23T01:55:15.017Z,876.00
2019-02-23T01:56:16.773Z,876.00
2019-02-23T01:57:16.641Z,877.00
2019-02-23T01:58:17.389Z,878.00
2019-02-23T01:59:17.344Z,876.00
2019-02-23T02:00:17.779Z,878.00
2019-02-23T02:01:19.448Z,878.00
2019-02-23T02:02:19.957Z,877.00
2019-02-23T02:03:20.609Z,878.00
2019-02-23T02:04:21.296Z,878.00
2019-02-23T02:04:31.852Z,877.00
2019-02-23T02:05:33.643Z,878.00
2019-02-23T02:06:33.771Z,876.00
2019-02-23T02:07:34.661Z,876.00
2019-02-23T02:08:35.350Z,876.00
2019-02-23T02:09:35.149Z,866.00
2019-02-23T02:10:36.965Z,867.00
2019-02-23T02:11:37.843Z,876.00
2019-02-23T02:12:37.429Z,878.00
2019-02-23T02:13:39.147Z,878.00
2019-02-23T02:14:39.636Z,878.00
2019-02-23T02:15:40.398Z,878.00
2019-02-23T02:16:41.019Z,878.00
2019-02-23T02:17:41.617Z,878.00
2019-02-23T02:18:42.081Z,877.00
2019-02-23T02:19:42.644Z,878.00
2019-02-23T02:20:43.509Z,877.00
2019-02-23T02:21:43.987Z,876.00
2019-02-23T02:22:44.836Z,876.00
2019-02-23T02:23:44.397Z,876.00
2019-02-23T02:24:45.876Z,876.00
2019-02-23T02:25:46.327Z,878.00
2019-02-23T02:26:46.900Z,877.00
2019-02-23T02:27:47.591Z,876.00
2019-02-23T02:28:48.482Z,878.00
2019-02-23T02:29:49.005Z,878.00
2019-02-23T02:30:49.508Z,876.00
2019-02-23T02:31:50.113Z,878.00
2019-02-23T02:32:50.656Z,878.00
2019-02-23T02:33:51.098Z,878.00
2019-02-23T02:34:51.584Z,876.00
2019-02-23T02:35:52.164Z,877.00
2019-02-23T02:36:52.798Z,876.00
2019-02-23T02:37:53.315Z,876.00
2019-02-23T02:38:53.986Z,876.00
2019-02-23T02:39:53.462Z,878.00
2019-02-23T02:40:54.125Z,878.00
2019-02-23T02:41:55.628Z,879.00
2019-02-23T02:42:56.195Z,878.00
2019-02-23T02:43:56.935Z,878.00
2019-02-23T02:44:57.670Z,878.00
2019-02-23T02:45:58.251Z,877.00
2019-02-23T02:46:59.091Z,876.00
2019-02-23T02:47:59.760Z,876.00
2019-02-23T02:49:00.437Z,876.00
2019-02-23T02:50:01.122Z,876.00
2019-02-23T02:51:01.834Z,878.00
2019-02-23T02:52:02.567Z,878.00
2019-02-23T02:52:11.622Z,877.00
2019-02-23T02:53:13.092Z,876.00
2019-02-23T02:54:13.647Z,877.00
2019-02-23T02:55:14.632Z,878.00
2019-02-23T02:56:15.597Z,876.00
2019-02-23T02:57:16.086Z,877.00
2019-02-23T02:58:16.333Z,876.00
2019-02-23T02:59:16.918Z,876.00
2019-02-23T03:00:17.655Z,876.00
2019-02-23T03:01:17.919Z,874.00
2019-02-23T03:02:18.453Z,874.00
2019-02-23T03:03:19.031Z,874.00
2019-02-23T03:04:19.541Z,876.00
2019-02-23T03:05:20.118Z,874.00
2019-02-23T03:06:20.707Z,876.00
2019-02-23T03:07:21.478Z,877.00
2019-02-23T03:08:21.994Z,877.00
2019-02-23T03:09:22.494Z,876.00
2019-02-23T03:10:23.126Z,876.00
2019-02-23T03:11:23.613Z,866.00
2019-02-23T03:12:24.085Z,859.00
2019-02-23T03:13:24.687Z,874.00
2019-02-23T03:14:25.127Z,865.00
2019-02-23T03:15:25.571Z,874.00
2019-02-23T03:16:26.118Z,874.00
2019-02-23T03:17:26.687Z,874.00
2019-02-23T03:18:27.298Z,874.00
2019-02-23T03:19:27.942Z,873.00
2019-02-23T03:20:36.585Z,874.00
2019-02-23T03:21:28.306Z,874.00
2019-02-23T03:22:30.115Z,874.00
2019-02-23T03:23:30.967Z,874.00
2019-02-23T03:24:31.491Z,874.00
2019-02-23T03:25:31.858Z,874.00
2019-02-23T03:26:32.369Z,876.00
2019-02-23T03:27:33.176Z,876.00
2019-02-23T03:28:33.359Z,874.00
2019-02-23T03:29:33.801Z,876.00
2019-02-23T03:30:34.291Z,874.00
2019-02-23T03:31:34.731Z,876.00
2019-02-23T03:32:35.619Z,876.00
2019-02-23T03:33:36.391Z,876.00
2019-02-23T03:34:36.984Z,874.00
2019-02-23T03:35:37.429Z,874.00
2019-02-23T03:35:46.527Z,874.00
2019-02-23T03:36:47.968Z,874.00
2019-02-23T03:37:48.496Z,874.00
2019-02-23T03:38:49.071Z,873.00
2019-02-23T03:39:49.908Z,877.00
2019-02-23T03:40:50.663Z,877.00
2019-02-23T03:41:51.245Z,876.00
2019-02-23T03:42:51.805Z,876.00
2019-02-23T03:43:52.320Z,866.00
2019-02-23T03:44:52.916Z,866.00
2019-02-23T03:45:53.557Z,866.00
2019-02-23T03:46:54.291Z,866.00
2019-02-23T03:47:55.034Z,867.00
2019-02-23T03:48:55.627Z,866.00
2019-02-23T03:49:56.220Z,866.00
2019-02-23T03:50:56.881Z,866.00
2019-02-23T03:51:57.305Z,874.00
2019-02-23T03:52:57.843Z,876.00
2019-02-23T03:53:58.531Z,874.00
2019-02-23T03:54:59.199Z,876.00
2019-02-23T03:55:59.779Z,848.00
2019-02-23T03:57:00.317Z,866.00
2019-02-23T03:58:00.877Z,874.00
2019-02-23T03:59:01.760Z,874.00
2019-02-23T04:00:01.807Z,874.00
2019-02-23T04:01:02.367Z,874.00
2019-02-23T04:02:02.928Z,874.00
2019-02-23T04:03:03.422Z,876.00
2019-02-23T04:04:03.998Z,877.00
2019-02-23T04:05:04.613Z,877.00
2019-02-23T04:06:05.321Z,878.00
2019-02-23T04:07:06.022Z,877.00
2019-02-23T04:08:06.721Z,877.00
2019-02-23T04:09:07.350Z,878.00
2019-02-23T04:10:07.799Z,880.00
2019-02-23T04:11:08.507Z,880.00
2019-02-23T04:12:09.021Z,879.00
2019-02-23T04:13:09.866Z,879.00
2019-02-23T04:14:10.772Z,878.00
2019-02-23T04:15:11.437Z,878.00
2019-02-23T04:16:12.073Z,879.00
2019-02-23T04:17:12.623Z,877.00
2019-02-23T04:18:13.117Z,876.00
2019-02-23T04:19:13.712Z,876.00
2019-02-23T04:20:14.178Z,876.00
2019-02-23T04:20:25.255Z,874.00
2019-02-23T04:21:25.941Z,876.00
2019-02-23T04:22:27.455Z,867.00
2019-02-23T04:23:27.979Z,866.00
2019-02-23T04:24:28.529Z,877.00
2019-02-23T04:25:28.985Z,876.00
2019-02-23T04:26:29.832Z,876.00
2019-02-23T04:27:30.464Z,874.00
2019-02-23T04:28:31.185Z,874.00
2019-02-23T04:29:31.791Z,874.00
2019-02-23T04:30:32.238Z,874.00
2019-02-23T04:31:33.134Z,874.00
2019-02-23T04:32:33.785Z,874.00
2019-02-23T04:33:34.503Z,874.00
2019-02-23T04:34:35.106Z,874.00
2019-02-23T04:35:35.600Z,874.00
2019-02-23T04:36:36.150Z,874.00
2019-02-23T04:37:36.727Z,876.00
2019-02-23T04:38:37.451Z,879.00
2019-02-23T04:39:38.121Z,876.00
2019-02-23T04:40:38.265Z,877.00
2019-02-23T04:41:38.926Z,876.00
2019-02-23T04:42:39.433Z,866.00
2019-02-23T04:43:40.042Z,874.00
2019-02-23T04:44:40.642Z,874.00
2019-02-23T04:45:41.190Z,874.00
2019-02-23T04:46:41.867Z,874.00
2019-02-23T04:47:42.555Z,874.00
2019-02-23T04:48:43.129Z,874.00
2019-02-23T04:49:43.635Z,874.00
2019-02-23T04:50:44.203Z,874.00
2019-02-23T04:51:44.683Z,874.00
2019-02-23T04:52:45.324Z,873.00
2019-02-23T04:53:45.778Z,874.00
2019-02-23T04:54:46.206Z,874.00
2019-02-23T04:55:46.704Z,874.00
2019-02-23T04:56:47.364Z,874.00
2019-02-23T04:57:47.784Z,873.00
2019-02-23T04:58:48.223Z,873.00
2019-02-23T04:59:48.958Z,873.00
2019-02-23T05:00:49.603Z,874.00
2019-02-23T05:01:50.093Z,873.00
2019-02-23T05:02:50.711Z,873.00
2019-02-23T05:03:51.373Z,873.00
2019-02-23T05:04:51.985Z,873.00
2019-02-23T05:05:01.038Z,873.00
2019-02-23T05:06:02.646Z,873.00
2019-02-23T05:07:03.148Z,873.00
2019-02-23T05:08:03.859Z,873.00
2019-02-23T05:09:04.340Z,873.00
2019-02-23T05:10:04.869Z,873.00
2019-02-23T05:11:05.819Z,873.00
2019-02-23T05:12:06.507Z,873.00
2019-02-23T05:13:07.028Z,873.00
2019-02-23T05:14:07.622Z,873.00
2019-02-23T05:15:08.441Z,874.00
2019-02-23T05:16:09.268Z,874.00
2019-02-23T05:17:09.798Z,876.00
2019-02-23T05:18:10.262Z,876.00
2019-02-23T05:19:10.901Z,876.00
2019-02-23T05:20:11.383Z,874.00
2019-02-23T05:21:12.155Z,874.00
2019-02-23T05:22:12.990Z,874.00
2019-02-23T05:23:13.539Z,874.00
2019-02-23T05:24:14.071Z,874.00
2019-02-23T05:25:14.623Z,876.00
2019-02-23T05:26:15.256Z,874.00
2019-02-23T05:27:16.056Z,874.00
2019-02-23T05:28:16.636Z,874.00
2019-02-23T05:29:17.112Z,873.00
2019-02-23T05:30:17.809Z,873.00
2019-02-23T05:31:17.963Z,874.00
2019-02-23T05:32:18.431Z,873.00
2019-02-23T05:33:19.091Z,873.00
2019-02-23T05:34:18.829Z,874.00
2019-02-23T05:35:19.905Z,873.00
2019-02-23T05:36:20.711Z,874.00
2019-02-23T05:37:21.252Z,873.00
2019-02-23T05:38:22.023Z,873.00
2019-02-23T05:39:21.366Z,873.00
2019-02-23T05:40:23.230Z,874.00
2019-02-23T05:41:23.692Z,874.00
2019-02-23T05:42:24.361Z,865.00
2019-02-23T05:43:24.771Z,865.00
2019-02-23T05:44:25.520Z,874.00
2019-02-23T05:45:26.197Z,849.00
2019-02-23T05:46:26.698Z,866.00
2019-02-23T05:47:27.542Z,866.00
2019-02-23T05:48:28.085Z,874.00
2019-02-23T05:49:28.703Z,874.00
2019-02-23T05:50:29.206Z,874.00
2019-02-23T05:50:38.250Z,873.00
2019-02-23T05:51:39.623Z,874.00
2019-02-23T05:52:40.203Z,874.00
2019-02-23T05:53:40.586Z,874.00
2019-02-23T05:54:41.094Z,874.00
2019-02-23T05:55:41.750Z,874.00
2019-02-23T05:56:42.658Z,874.00
2019-02-23T05:57:43.502Z,874.00
2019-02-23T05:58:43.963Z,874.00
2019-02-23T05:59:44.612Z,874.00
2019-02-23T06:00:45.550Z,874.00
2019-02-23T06:01:46.135Z,874.00
2019-02-23T06:02:46.594Z,874.00
2019-02-23T06:03:47.038Z,876.00
2019-02-23T06:04:47.747Z,874.00
2019-02-23T06:05:48.414Z,874.00
2019-02-23T06:06:48.845Z,876.00
2019-02-23T06:07:49.445Z,874.00
2019-02-23T06:08:49.913Z,874.00
2019-02-23T06:09:50.506Z,874.00
2019-02-23T06:10:50.061Z,874.00
2019-02-23T06:11:51.566Z,874.00
2019-02-23T06:12:52.083Z,874.00
2019-02-23T06:13:53.558Z,874.00
2019-02-23T06:14:53.028Z,874.00
2019-02-23T06:15:53.614Z,873.00
2019-02-23T06:16:54.041Z,874.00
2019-02-23T06:17:54.661Z,874.00
2019-02-23T06:18:55.205Z,874.00
2019-02-23T06:19:55.745Z,874.00
2019-02-23T06:20:56.230Z,874.00
2019-02-23T06:21:56.954Z,874.00
2019-02-23T06:22:57.823Z,876.00
2019-02-23T06:23:58.410Z,876.00
2019-02-23T06:24:59.140Z,876.00
2019-02-23T06:25:59.566Z,876.00
2019-02-23T06:27:00.016Z,874.00
2019-02-23T06:28:00.667Z,876.00
2019-02-23T06:29:01.204Z,876.00
2019-02-23T06:30:01.646Z,874.00
2019-02-23T06:31:02.115Z,876.00
2019-02-23T06:32:02.792Z,874.00
2019-02-23T06:33:03.340Z,874.00
2019-02-23T06:34:15.413Z,874.00
2019-02-23T06:35:03.489Z,876.00
2019-02-23T06:36:05.026Z,876.00
2019-02-23T06:36:14.082Z,874.00
2019-02-23T06:37:15.307Z,874.00
2019-02-23T06:38:15.724Z,874.00
2019-02-23T06:39:16.276Z,874.00
2019-02-23T06:40:17.218Z,874.00
2019-02-23T06:41:18.162Z,874.00
2019-02-23T06:42:18.978Z,874.00
2019-02-23T06:43:19.655Z,873.00
2019-02-23T06:44:20.121Z,873.00
2019-02-23T06:45:20.699Z,874.00
2019-02-23T06:46:21.639Z,874.00
2019-02-23T06:47:22.177Z,874.00
2019-02-23T06:48:23.028Z,874.00
2019-02-23T06:49:23.941Z,873.00
2019-02-23T06:50:24.841Z,873.00
2019-02-23T06:51:24.125Z,874.00
2019-02-23T06:52:25.426Z,874.00
2019-02-23T06:53:25.962Z,874.00
2019-02-23T06:54:26.404Z,874.00
2019-02-23T06:55:26.772Z,874.00
2019-02-23T06:56:27.263Z,862.00
2019-02-23T06:57:27.726Z,866.00
2019-02-23T06:58:28.207Z,866.00
2019-02-23T06:59:28.703Z,865.00
2019-02-23T07:00:29.268Z,865.00
2019-02-23T07:01:29.788Z,866.00
2019-02-23T07:02:30.311Z,874.00
2019-02-23T07:03:30.949Z,874.00
2019-02-23T07:04:31.369Z,874.00
2019-02-23T07:05:32.044Z,874.00
2019-02-23T07:06:32.756Z,874.00
2019-02-23T07:07:33.239Z,874.00
2019-02-23T07:08:33.927Z,874.00
2019-02-23T07:09:33.733Z,874.00
2019-02-23T07:10:35.484Z,876.00
2019-02-23T07:11:35.261Z,874.00
2019-02-23T07:12:35.914Z,874.00
2019-02-23T07:13:36.372Z,874.00
2019-02-23T07:14:36.954Z,874.00
2019-02-23T07:15:37.485Z,874.00
2019-02-23T07:16:38.220Z,874.00
2019-02-23T07:17:40.154Z,874.00
2019-02-23T07:18:41.081Z,873.00
2019-02-23T07:19:41.554Z,873.00
2019-02-23T07:20:44.312Z,874.00
2019-02-23T07:21:41.800Z,873.00
2019-02-23T07:22:42.136Z,874.00
2019-02-23T07:23:43.057Z,874.00
2019-02-23T07:24:43.738Z,874.00
2019-02-23T07:25:45.244Z,874.00
2019-02-23T07:26:45.727Z,874.00
2019-02-23T07:27:46.289Z,874.00
2019-02-23T07:28:46.244Z,867.00
2019-02-23T07:29:47.815Z,867.00
2019-02-23T07:30:47.555Z,874.00
2019-02-23T07:30:58.656Z,868.00
2019-02-23T07:31:59.536Z,876.00
2019-02-23T07:32:59.142Z,874.00
2019-02-23T07:33:59.655Z,874.00
2019-02-23T07:35:00.415Z,874.00
2019-02-23T07:36:02.125Z,874.00
2019-02-23T07:37:02.588Z,876.00
2019-02-23T07:38:03.059Z,874.00
2019-02-23T07:39:03.477Z,876.00
2019-02-23T07:40:03.151Z,876.00
2019-02-23T07:41:04.860Z,876.00
2019-02-23T07:42:04.585Z,876.00
2019-02-23T07:43:06.504Z,874.00
2019-02-23T07:44:06.464Z,876.00
2019-02-23T07:45:07.174Z,874.00
2019-02-23T07:46:07.865Z,874.00
2019-02-23T07:47:08.604Z,874.00
2019-02-23T07:48:10.539Z,873.00
2019-02-23T07:49:10.161Z,873.00
2019-02-23T07:50:11.770Z,874.00
2019-02-23T07:51:11.493Z,873.00
2019-02-23T07:52:12.118Z,873.00
2019-02-23T07:53:12.765Z,873.00
2019-02-23T07:54:13.489Z,873.00
2019-02-23T07:55:14.977Z,873.00
2019-02-23T07:56:15.370Z,871.00
2019-02-23T07:57:15.863Z,873.00
2019-02-23T07:58:16.413Z,876.00
2019-02-23T07:59:17.230Z,876.00
2019-02-23T08:00:17.829Z,876.00
2019-02-23T08:01:18.570Z,877.00
2019-02-23T08:02:19.004Z,879.00
2019-02-23T08:03:19.782Z,877.00
2019-02-23T08:04:20.302Z,878.00
2019-02-23T08:05:20.569Z,878.00
2019-02-23T08:06:21.021Z,877.00
2019-02-23T08:07:21.755Z,876.00
2019-02-23T08:08:21.561Z,876.00
2019-02-23T08:09:23.020Z,876.00
2019-02-23T08:10:23.495Z,876.00
2019-02-23T08:11:23.760Z,876.00
2019-02-23T08:12:23.806Z,874.00
2019-02-23T08:13:24.308Z,874.00
2019-02-23T08:14:24.241Z,874.00
2019-02-23T08:15:25.840Z,874.00
2019-02-23T08:16:26.378Z,874.00
2019-02-23T08:17:26.865Z,874.00
2019-02-23T08:18:27.514Z,866.00
2019-02-23T08:19:28.310Z,865.00
2019-02-23T08:20:29.017Z,865.00
2019-02-23T08:21:29.526Z,873.00
2019-02-23T08:22:37.038Z,874.00
2019-02-23T08:23:29.071Z,874.00
2019-02-23T08:24:30.963Z,873.00
2019-02-23T08:25:31.483Z,873.00
2019-02-23T08:26:32.296Z,873.00
2019-02-23T08:27:31.899Z,871.00
2019-02-23T08:28:33.554Z,871.00
2019-02-23T08:28:42.602Z,871.00
2019-02-23T08:29:43.995Z,871.00
2019-02-23T08:30:44.609Z,871.00
2019-02-23T08:31:44.977Z,873.00
2019-02-23T08:32:45.721Z,871.00
2019-02-23T08:33:46.179Z,871.00
2019-02-23T08:34:46.933Z,871.00
2019-02-23T08:35:47.440Z,871.00
2019-02-23T08:36:48.239Z,871.00
2019-02-23T08:37:48.224Z,870.00
2019-02-23T08:38:48.886Z,870.00
2019-02-23T08:39:49.829Z,871.00
2019-02-23T08:40:50.442Z,871.00
2019-02-23T08:41:51.157Z,870.00
2019-02-23T08:42:51.693Z,873.00
2019-02-23T08:43:52.284Z,871.00
2019-02-23T08:44:52.911Z,871.00
2019-02-23T08:45:53.421Z,871.00
2019-02-23T08:46:53.905Z,871.00
2019-02-23T08:47:56.357Z,871.00
2019-02-23T08:48:53.919Z,870.00
2019-02-23T08:49:55.818Z,870.00
2019-02-23T08:50:56.574Z,870.00
2019-02-23T08:51:57.049Z,871.00
2019-02-23T08:52:57.689Z,870.00
2019-02-23T08:53:57.933Z,871.00
2019-02-23T08:54:57.970Z,871.00
2019-02-23T08:55:58.901Z,871.00
2019-02-23T08:56:59.382Z,871.00
2019-02-23T08:58:00.144Z,871.00
2019-02-23T08:59:00.755Z,864.00
2019-02-23T09:00:01.728Z,871.00
2019-02-23T09:01:02.656Z,871.00
2019-02-23T09:02:03.622Z,873.00
2019-02-23T09:03:02.913Z,873.00
2019-02-23T09:04:04.549Z,873.00
2019-02-23T09:05:05.176Z,872.00
2019-02-23T09:06:05.918Z,871.00
2019-02-23T09:07:06.628Z,874.00
2019-02-23T09:08:06.442Z,874.00
2019-02-23T09:09:08.257Z,873.00
2019-02-23T09:10:07.040Z,866.00
2019-02-23T09:11:11.257Z,874.00
2019-02-23T09:12:08.648Z,876.00
2019-02-23T09:13:09.312Z,878.00
2019-02-23T09:14:09.166Z,876.00
2019-02-23T09:15:10.602Z,867.00
2019-02-23T09:16:11.049Z,867.00
2019-02-23T09:17:11.519Z,874.00
2019-02-23T09:17:21.600Z,876.00
2019-02-23T09:18:22.300Z,876.00
2019-02-23T09:19:22.778Z,876.00
2019-02-23T09:20:29.182Z,874.00
2019-02-23T09:21:22.844Z,877.00
2019-02-23T09:22:24.444Z,876.00
2019-02-23T09:23:25.018Z,876.00
2019-02-23T09:24:25.466Z,874.00
2019-02-23T09:25:25.952Z,874.00
2019-02-23T09:26:25.623Z,873.00
2019-02-23T09:27:27.063Z,872.00
2019-02-23T09:28:27.508Z,871.00
2019-02-23T09:29:28.059Z,873.00
2019-02-23T09:30:28.825Z,872.00
2019-02-23T09:31:29.554Z,871.00
2019-02-23T09:32:28.946Z,870.00
2019-02-23T09:33:30.693Z,870.00
2019-02-23T09:34:31.439Z,869.00
2019-02-23T09:35:32.375Z,869.00
2019-02-23T09:36:33.107Z,869.00
2019-02-23T09:37:33.522Z,869.00
2019-02-23T09:38:34.313Z,868.00
2019-02-23T09:39:35.380Z,867.00
2019-02-23T09:40:34.810Z,868.00
2019-02-23T09:41:36.290Z,867.00
2019-02-23T09:42:36.754Z,867.00
2019-02-23T09:43:37.350Z,867.00
2019-02-23T09:44:38.138Z,865.00
2019-02-23T09:45:38.286Z,864.00
2019-02-23T09:46:38.859Z,861.00
2019-02-23T09:47:39.189Z,861.00
2019-02-23T09:48:39.983Z,861.00
2019-02-23T09:49:40.494Z,861.00
2019-02-23T09:50:41.174Z,864.00
2019-02-23T09:51:41.974Z,861.00
2019-02-23T09:52:42.748Z,865.00
2019-02-23T09:53:43.511Z,861.00
2019-02-23T09:54:43.956Z,861.00
2019-02-23T09:55:44.558Z,859.00
2019-02-23T09:56:45.244Z,859.00
2019-02-23T09:57:45.854Z,860.00
2019-02-23T09:58:46.402Z,860.00
2019-02-23T09:59:47.096Z,860.00
2019-02-23T10:00:48.017Z,860.00
2019-02-23T10:01:48.517Z,864.00
2019-02-23T10:02:49.072Z,861.00
2019-02-23T10:03:49.528Z,861.00
2019-02-23T10:04:50.108Z,861.00
2019-02-23T10:05:50.864Z,861.00
2019-02-23T10:05:59.901Z,861.00
2019-02-23T10:07:01.491Z,861.00
2019-02-23T10:08:02.067Z,861.00
2019-02-23T10:09:02.707Z,861.00
2019-02-23T10:10:03.438Z,860.00
2019-02-23T10:11:04.020Z,859.00
2019-02-23T10:12:04.559Z,859.00
2019-02-23T10:13:05.093Z,858.00
2019-02-23T10:14:07.472Z,859.00
2019-02-23T10:15:05.701Z,858.00
2019-02-23T10:16:07.482Z,858.00
2019-02-23T10:17:09.280Z,850.00
2019-02-23T10:18:07.940Z,857.00
2019-02-23T10:19:09.502Z,856.00
2019-02-23T10:20:10.421Z,848.00
2019-02-23T10:21:11.052Z,847.00
2019-02-23T10:22:11.947Z,848.00
2019-02-23T10:23:21.523Z,855.00
2019-02-23T10:24:12.501Z,855.00
2019-02-23T10:25:12.999Z,855.00
2019-02-23T10:26:14.584Z,855.00
2019-02-23T10:27:15.534Z,856.00
2019-02-23T10:28:16.007Z,857.00
2019-02-23T10:29:16.495Z,857.00
2019-02-23T10:30:17.092Z,858.00
2019-02-23T10:31:17.671Z,859.00
2019-02-23T10:32:18.565Z,860.00
2019-02-23T10:33:19.037Z,859.00
2019-02-23T10:34:19.712Z,858.00
2019-02-23T10:35:20.337Z,859.00
2019-02-23T10:36:21.132Z,859.00
2019-02-23T10:37:21.824Z,858.00
2019-02-23T10:38:22.824Z,860.00
2019-02-23T10:39:23.596Z,860.00
2019-02-23T10:40:23.784Z,859.00
2019-02-23T10:41:24.457Z,860.00
2019-02-23T10:42:24.919Z,860.00
2019-02-23T10:43:25.599Z,859.00
2019-02-23T10:44:26.200Z,858.00
2019-02-23T10:45:26.749Z,858.00
2019-02-23T10:46:27.371Z,858.00
2019-02-23T10:47:27.916Z,858.00
2019-02-23T10:48:28.683Z,857.00
2019-02-23T10:49:29.189Z,858.00
2019-02-23T10:50:29.687Z,857.00
2019-02-23T10:51:30.321Z,849.00
2019-02-23T10:52:30.814Z,848.00
2019-02-23T10:53:33.098Z,857.00
2019-02-23T10:53:40.465Z,849.00
2019-02-23T10:54:42.069Z,857.00
2019-02-23T10:55:42.683Z,856.00
2019-02-23T10:56:43.214Z,856.00
2019-02-23T10:57:43.695Z,857.00
2019-02-23T10:58:44.145Z,856.00
2019-02-23T10:59:44.726Z,856.00
2019-02-23T11:00:45.342Z,857.00
2019-02-23T11:01:44.989Z,849.00
2019-02-23T11:02:46.727Z,849.00
2019-02-23T11:03:47.280Z,857.00
2019-02-23T11:04:47.811Z,850.00
2019-02-23T11:05:48.421Z,858.00
2019-02-23T11:06:49.100Z,860.00
2019-02-23T11:07:49.834Z,860.00
2019-02-23T11:08:50.479Z,859.00
2019-02-23T11:09:51.092Z,859.00
2019-02-23T11:10:51.688Z,859.00
2019-02-23T11:11:52.293Z,859.00
2019-02-23T11:12:52.865Z,859.00
2019-02-23T11:13:53.827Z,859.00
2019-02-23T11:14:54.772Z,858.00
2019-02-23T11:15:55.523Z,857.00
2019-02-23T11:16:56.250Z,858.00
2019-02-23T11:17:56.919Z,852.00
2019-02-23T11:18:57.170Z,857.00
2019-02-23T11:19:57.341Z,858.00
2019-02-23T11:20:57.999Z,858.00
2019-02-23T11:21:58.770Z,857.00
2019-02-23T11:22:58.765Z,858.00
2019-02-23T11:23:59.267Z,857.00
2019-02-23T11:25:00.029Z,857.00
2019-02-23T11:26:00.602Z,857.00
2019-02-23T11:27:01.170Z,856.00
2019-02-23T11:28:01.573Z,859.00
2019-02-23T11:29:02.363Z,859.00
2019-02-23T11:30:02.840Z,859.00
2019-02-23T11:31:03.353Z,852.00
2019-02-23T11:32:04.164Z,859.00
2019-02-23T11:33:04.727Z,860.00
2019-02-23T11:34:05.346Z,860.00
2019-02-23T11:35:05.899Z,861.00
2019-02-23T11:36:06.523Z,861.00
2019-02-23T11:37:06.235Z,859.00
2019-02-23T11:38:07.654Z,859.00
2019-02-23T11:39:08.288Z,859.00
2019-02-23T11:40:09.158Z,859.00
2019-02-23T11:40:18.257Z,858.00
2019-02-23T11:41:19.727Z,859.00
2019-02-23T11:42:20.250Z,858.00
2019-02-23T11:43:21.025Z,858.00
2019-02-23T11:44:21.528Z,857.00
2019-02-23T11:45:22.199Z,859.00
2019-02-23T11:46:22.583Z,859.00
2019-02-23T11:47:23.329Z,859.00
2019-02-23T11:48:24.118Z,859.00
2019-02-23T11:49:24.655Z,859.00
2019-02-23T11:50:25.360Z,859.00
2019-02-23T11:51:27.225Z,859.00
2019-02-23T11:52:25.790Z,860.00
2019-02-23T11:53:27.278Z,858.00
2019-02-23T11:54:27.859Z,858.00
2019-02-23T11:55:28.671Z,858.00
2019-02-23T11:56:29.333Z,858.00
2019-02-23T11:57:29.774Z,858.00
2019-02-23T11:58:32.371Z,858.00
2019-02-23T11:59:31.209Z,859.00
2019-02-23T12:00:31.691Z,860.00
2019-02-23T12:01:32.315Z,861.00
2019-02-23T12:02:32.611Z,860.00
2019-02-23T12:03:33.253Z,859.00
2019-02-23T12:04:33.759Z,858.00
2019-02-23T12:05:34.400Z,857.00
2019-02-23T12:06:35.067Z,859.00
2019-02-23T12:07:35.784Z,859.00
2019-02-23T12:08:36.247Z,859.00
2019-02-23T12:09:37.095Z,857.00
2019-02-23T12:10:37.992Z,857.00
2019-02-23T12:11:38.537Z,856.00
2019-02-23T12:12:39.194Z,857.00
2019-02-23T12:13:39.966Z,857.00
2019-02-23T12:14:40.656Z,859.00
2019-02-23T12:15:41.461Z,858.00
2019-02-23T12:16:41.960Z,849.00
2019-02-23T12:17:42.630Z,852.00
2019-02-23T12:18:43.446Z,850.00
2019-02-23T12:19:44.081Z,858.00
2019-02-23T12:20:44.681Z,858.00
2019-02-23T12:21:45.246Z,857.00
2019-02-23T12:22:45.743Z,856.00
2019-02-23T12:23:46.261Z,856.00